Time;durP1;ratioP1;P1;durP2;ratioP2;P2;SDS_P1;SDS_P2;PMS_P1;PMS_P2;Temp;Humidity;BMP_temperature;BMP_pressure;BME280_temperature;BME280_humidity;BME280_pressure;Samples;Min_cycle;Max_cycle;Signal;HPM_P1;HPM_P2
2021/04/30 00:01:49;;;;;;;16.53;10.63;;;8.30;99.90;;;;;;5012614;28;20891;-85
2021/04/30 00:04:20;;;;;;;16.20;10.53;;;8.30;99.90;;;;;;5013941;28;20550;-85
2021/04/30 00:06:47;;;;;;;18.20;11.10;;;8.30;99.90;;;;;;5013559;28;20919;-85
2021/04/30 00:09:13;;;;;;;15.30;10.50;;;8.30;99.90;;;;;;5014467;28;20513;-86
2021/04/30 00:11:39;;;;;;;19.87;10.17;;;8.20;99.90;;;;;;5012899;28;20440;-85
2021/04/30 00:14:05;;;;;;;14.83;10.17;;;8.30;99.90;;;;;;5017361;28;20438;-85
2021/04/30 00:16:31;;;;;;;16.90;10.40;;;8.30;99.90;;;;;;5020424;28;20442;-84
2021/04/30 00:19:01;;;;;;;14.70;9.93;;;8.30;99.90;;;;;;5000301;28;20744;-85
2021/04/30 00:21:29;;;;;;;12.60;9.93;;;8.30;99.90;;;;;;5023638;28;20862;-84
2021/04/30 00:23:57;;;;;;;12.23;9.87;;;8.30;99.90;;;;;;5006374;28;20475;-85
2021/04/30 00:26:23;;;;;;;16.53;11.10;;;8.40;99.90;;;;;;5028036;28;20471;-84
2021/04/30 00:28:58;;;;;;;13.27;10.07;;;8.40;99.90;;;;;;5015016;28;20451;-85
2021/04/30 00:31:26;;;;;;;13.97;9.63;;;8.40;99.90;;;;;;5006367;28;20476;-85
2021/04/30 00:33:59;;;;;;;17.60;10.17;;;8.30;99.90;;;;;;5012359;28;20463;-85
2021/04/30 00:36:27;;;;;;;11.13;9.90;;;8.30;99.90;;;;;;4977628;28;20441;-85
2021/04/30 00:38:53;;;;;;;16.97;10.70;;;8.30;99.90;;;;;;5012586;28;20462;-85
2021/04/30 00:41:24;;;;;;;14.83;11.07;;;8.40;99.90;;;;;;5032606;28;20822;-85
2021/04/30 00:43:51;;;;;;;16.27;10.57;;;8.30;99.90;;;;;;5031834;28;20476;-86
2021/04/30 00:46:20;;;;;;;22.37;11.37;;;8.30;99.90;;;;;;5031867;28;20423;-85
2021/04/30 00:48:48;;;;;;;17.90;11.10;;;8.30;99.90;;;;;;5030338;28;20945;-85
2021/04/30 00:51:17;;;;;;;14.60;10.13;;;8.30;99.90;;;;;;5033688;28;20413;-85
2021/04/30 00:53:45;;;;;;;13.73;10.30;;;8.30;99.90;;;;;;5013820;28;20452;-84
2021/04/30 00:56:13;;;;;;;13.83;10.60;;;8.30;99.90;;;;;;5012826;28;20443;-85
2021/04/30 00:58:41;;;;;;;16.63;9.70;;;8.30;99.90;;;;;;5013826;28;20442;-85
2021/04/30 01:01:08;;;;;;;14.73;9.47;;;8.20;99.90;;;;;;4995890;28;20772;-85
2021/04/30 01:03:35;;;;;;;12.82;9.93;;;8.10;99.90;;;;;;5029013;28;20544;-85
2021/04/30 01:06:04;;;;;;;15.83;10.57;;;8.10;99.90;;;;;;5013715;28;20255;-85
2021/04/30 01:08:30;;;;;;;16.10;8.60;;;8.10;99.90;;;;;;5012606;28;20443;-85
2021/04/30 01:10:58;;;;;;;12.07;9.17;;;8.20;99.90;;;;;;5021435;28;20553;-85
2021/04/30 01:13:24;;;;;;;12.50;9.30;;;8.20;99.90;;;;;;5019550;28;20441;-85
2021/04/30 01:15:52;;;;;;;12.20;9.47;;;8.20;99.90;;;;;;5031813;28;20435;-85
2021/04/30 01:18:20;;;;;;;14.20;10.17;;;8.20;99.90;;;;;;5016277;28;20761;-85
2021/04/30 01:20:55;;;;;;;10.90;9.20;;;8.20;99.90;;;;;;5020708;28;20428;-85
2021/04/30 01:23:20;;;;;;;12.17;8.67;;;8.20;99.90;;;;;;5022083;28;20486;-85
2021/04/30 01:25:51;;;;;;;17.47;10.23;;;8.10;99.90;;;;;;5025946;28;20949;-85
2021/04/30 01:28:18;;;;;;;11.10;8.43;;;8.00;99.90;;;;;;5028724;28;20509;-85
2021/04/30 01:30:49;;;;;;;11.40;9.77;;;8.00;99.90;;;;;;4980101;28;20465;-86
2021/04/30 01:33:17;;;;;;;11.60;9.60;;;8.00;99.90;;;;;;4996436;28;20438;-85
2021/04/30 01:35:44;;;;;;;12.10;9.03;;;8.10;99.90;;;;;;5017992;28;20464;-85
2021/04/30 01:38:13;;;;;;;10.27;9.20;;;8.00;99.90;;;;;;5021967;28;20430;-83
2021/04/30 01:40:39;;;;;;;11.23;9.27;;;8.10;99.90;;;;;;5034262;28;20477;-84
2021/04/30 01:43:09;;;;;;;12.20;9.67;;;8.00;99.90;;;;;;5035088;28;20841;-85
2021/04/30 01:45:39;;;;;;;14.13;9.60;;;8.00;99.90;;;;;;5035468;28;20915;-84
2021/04/30 01:48:10;;;;;;;17.33;10.43;;;8.00;99.90;;;;;;5016873;28;20419;-85
2021/04/30 01:50:42;;;;;;;14.50;9.10;;;8.10;99.90;;;;;;5034725;28;20888;-86
2021/04/30 01:53:10;;;;;;;12.00;9.47;;;8.10;99.90;;;;;;4999022;28;20459;-85
2021/04/30 01:55:36;;;;;;;14.80;10.17;;;8.10;99.90;;;;;;5016286;28;20515;-86
2021/04/30 01:58:03;;;;;;;12.80;9.57;;;8.00;99.90;;;;;;5017239;28;20954;-85
2021/04/30 02:00:29;;;;;;;14.27;9.77;;;8.00;99.90;;;;;;4982919;28;20493;-85
2021/04/30 02:02:59;;;;;;;14.53;10.07;;;7.90;99.90;;;;;;5015290;28;20437;-85
2021/04/30 02:05:30;;;;;;;13.00;10.10;;;7.90;99.90;;;;;;5015342;28;20416;-85
2021/04/30 02:08:04;;;;;;;17.20;9.50;;;7.90;99.90;;;;;;5015419;28;20481;-85
2021/04/30 02:10:33;;;;;;;18.87;10.40;;;8.00;99.90;;;;;;5015342;28;20439;-85
2021/04/30 02:12:59;;;;;;;15.93;10.37;;;8.00;99.90;;;;;;5035663;28;20416;-84
2021/04/30 02:15:33;;;;;;;12.13;8.93;;;7.90;99.90;;;;;;5035013;28;20418;-85
2021/04/30 02:18:00;;;;;;;13.20;9.97;;;7.90;99.90;;;;;;5028319;28;20500;-85
2021/04/30 02:20:28;;;;;;;16.80;10.10;;;7.90;99.90;;;;;;5014715;28;20822;-85
2021/04/30 02:22:59;;;;;;;12.87;9.50;;;7.90;99.90;;;;;;5018949;28;20441;-84
2021/04/30 02:25:27;;;;;;;13.40;10.00;;;7.90;99.90;;;;;;4998595;28;20470;-85
2021/04/30 02:27:57;;;;;;;17.37;9.73;;;8.00;99.90;;;;;;5003274;28;20440;-84
2021/04/30 02:30:34;;;;;;;15.93;10.23;;;7.90;99.90;;;;;;5035106;28;20461;-85
2021/04/30 02:33:04;;;;;;;16.87;11.23;;;7.90;99.90;;;;;;5029549;28;20432;-85
2021/04/30 02:35:37;;;;;;;17.33;11.60;;;7.90;99.90;;;;;;5015415;28;20481;-85
2021/04/30 02:38:05;;;;;;;14.10;11.20;;;7.80;99.90;;;;;;5015588;28;20842;-85
2021/04/30 02:40:36;;;;;;;13.83;11.20;;;7.80;99.90;;;;;;5014541;28;20763;-86
2021/04/30 02:43:10;;;;;;;18.47;12.50;;;7.80;99.90;;;;;;5027193;28;20596;-85
2021/04/30 02:45:36;;;;;;;19.13;12.10;;;7.70;99.90;;;;;;5035057;28;20512;-85
2021/04/30 02:48:12;;;;;;;17.90;11.90;;;7.70;99.90;;;;;;5033025;28;20434;-85
2021/04/30 02:50:40;;;;;;;11.90;10.70;;;7.80;99.90;;;;;;5034032;28;20182;-85
2021/04/30 02:53:06;;;;;;;24.30;11.87;;;7.80;99.90;;;;;;5031735;28;20430;-85
2021/04/30 02:55:32;;;;;;;16.33;11.83;;;7.70;99.90;;;;;;5017110;28;20494;-85
2021/04/30 02:58:01;;;;;;;17.40;11.97;;;7.70;99.90;;;;;;5029114;28;20438;-85
2021/04/30 03:00:32;;;;;;;20.93;12.37;;;7.70;99.90;;;;;;5031237;28;20467;-85
2021/04/30 03:03:02;;;;;;;20.17;12.50;;;7.60;99.90;;;;;;5033701;28;20506;-85
2021/04/30 03:05:28;;;;;;;15.23;12.20;;;7.60;99.90;;;;;;5000916;28;20459;-85
2021/04/30 03:07:57;;;;;;;16.63;12.03;;;7.50;99.90;;;;;;5018390;28;20767;-85
2021/04/30 03:10:23;;;;;;;22.90;13.60;;;7.50;99.90;;;;;;5034049;28;20571;-85
2021/04/30 03:12:55;;;;;;;19.30;11.63;;;7.40;99.90;;;;;;5034389;28;20421;-85
2021/04/30 03:15:22;;;;;;;17.13;12.90;;;7.40;99.90;;;;;;5033799;28;20449;-85
2021/04/30 03:17:51;;;;;;;17.30;11.13;;;7.50;99.90;;;;;;5031230;28;20439;-85
2021/04/30 03:20:20;;;;;;;15.40;12.10;;;7.50;99.90;;;;;;5001532;28;20444;-85
2021/04/30 03:22:46;;;;;;;18.80;12.73;;;7.50;99.90;;;;;;5014156;28;20538;-85
2021/04/30 03:25:16;;;;;;;16.20;11.53;;;7.50;99.90;;;;;;5015411;28;20946;-85
2021/04/30 03:27:42;;;;;;;16.87;11.23;;;7.50;99.90;;;;;;5021486;28;20805;-85
2021/04/30 03:30:12;;;;;;;21.87;13.50;;;7.50;99.90;;;;;;5033892;28;20540;-85
2021/04/30 03:32:39;;;;;;;21.30;13.60;;;7.50;99.90;;;;;;5014396;28;20568;-85
2021/04/30 03:35:07;;;;;;;18.93;13.53;;;7.50;99.90;;;;;;5022606;28;20434;-85
2021/04/30 03:37:35;;;;;;;19.60;12.70;;;7.50;99.90;;;;;;5033314;28;20416;-85
2021/04/30 03:40:03;;;;;;;22.27;13.93;;;7.50;99.90;;;;;;5018373;28;20473;-85
2021/04/30 03:42:29;;;;;;;19.20;13.57;;;7.50;99.90;;;;;;5033744;28;20439;-85
2021/04/30 03:44:57;;;;;;;18.53;13.40;;;7.40;99.90;;;;;;4994776;28;20302;-85
2021/04/30 03:47:23;;;;;;;21.57;14.00;;;7.40;99.90;;;;;;5029686;28;20435;-85
2021/04/30 03:49:59;;;;;;;19.13;15.17;;;7.40;99.90;;;;;;5017985;28;20419;-85
2021/04/30 03:52:25;;;;;;;24.60;15.67;;;7.40;99.90;;;;;;5007494;28;20434;-86
2021/04/30 03:54:51;;;;;;;24.67;15.30;;;7.40;99.90;;;;;;5026940;28;20441;-85
2021/04/30 03:57:19;;;;;;;18.40;13.80;;;7.60;99.90;;;;;;5013386;28;20427;-85
2021/04/30 03:59:44;;;;;;;23.40;14.30;;;7.60;99.90;;;;;;5013292;28;21021;-86
2021/04/30 04:02:10;;;;;;;22.07;13.30;;;7.50;99.90;;;;;;5013840;28;20453;-86
2021/04/30 04:04:41;;;;;;;25.67;17.70;;;7.40;99.90;;;;;;5029630;28;20534;-85
2021/04/30 04:07:07;;;;;;;19.47;13.80;;;7.40;99.90;;;;;;5025271;28;20442;-85
2021/04/30 04:09:33;;;;;;;19.50;15.10;;;7.40;99.90;;;;;;4997366;28;20431;-84
2021/04/30 04:12:08;;;;;;;19.50;14.50;;;7.30;99.90;;;;;;5019869;28;21134;-85
2021/04/30 04:14:42;;;;;;;27.80;15.37;;;7.30;99.90;;;;;;5013216;28;20586;-85
2021/04/30 04:17:08;;;;;;;19.93;15.10;;;7.30;99.90;;;;;;5013934;28;20437;-85
2021/04/30 04:19:34;;;;;;;22.10;15.40;;;7.20;99.90;;;;;;5022258;28;20437;-85
2021/04/30 04:22:03;;;;;;;20.10;14.95;;;7.30;99.90;;;;;;5014388;28;20434;-86
2021/04/30 04:24:31;;;;;;;19.03;15.50;;;7.30;99.90;;;;;;5032286;28;20229;-87
2021/04/30 04:27:00;;;;;;;19.97;15.80;;;7.30;99.90;;;;;;5033512;28;20566;-86
2021/04/30 04:29:26;;;;;;;23.67;16.87;;;7.30;99.90;;;;;;5017903;28;20438;-86
2021/04/30 04:31:51;;;;;;;20.50;16.57;;;7.20;99.90;;;;;;5014100;28;20474;-86
2021/04/30 04:34:17;;;;;;;20.63;16.03;;;7.20;99.90;;;;;;5015278;28;20487;-86
2021/04/30 04:36:46;;;;;;;23.40;16.23;;;7.20;99.90;;;;;;5028342;28;20513;-86
2021/04/30 04:39:12;;;;;;;23.03;15.30;;;7.20;99.90;;;;;;5014347;28;20512;-85
2021/04/30 04:41:40;;;;;;;23.00;16.97;;;7.20;99.90;;;;;;5017406;28;20524;-86
2021/04/30 04:44:06;;;;;;;21.20;16.43;;;7.10;99.90;;;;;;5032984;28;20910;-85
2021/04/30 04:46:34;;;;;;;20.30;15.77;;;7.20;99.90;;;;;;5036084;28;20421;-85
2021/04/30 04:48:59;;;;;;;23.57;17.00;;;7.20;99.90;;;;;;5026567;28;20481;-85
2021/04/30 04:51:30;;;;;;;22.87;17.50;;;7.10;99.90;;;;;;5017631;28;20942;-86
2021/04/30 04:53:58;;;;;;;23.97;16.40;;;7.20;99.90;;;;;;5036748;28;20516;-86
2021/04/30 04:56:28;;;;;;;17.67;15.80;;;7.20;99.90;;;;;;5034882;28;20892;-84
2021/04/30 04:58:56;;;;;;;20.83;16.80;;;7.20;99.90;;;;;;4984845;28;20519;-85
2021/04/30 05:01:24;;;;;;;24.47;18.77;;;7.20;99.90;;;;;;5034594;28;20485;-85
2021/04/30 05:03:53;;;;;;;24.90;20.23;;;7.20;99.90;;;;;;5016487;28;20927;-85
2021/04/30 05:06:19;;;;;;;25.60;18.87;;;7.20;99.90;;;;;;5000096;28;20470;-84
2021/04/30 05:08:45;;;;;;;24.00;19.10;;;7.30;99.90;;;;;;5027782;28;20427;-84
2021/04/30 05:11:11;;;;;;;22.33;16.90;;;7.40;99.90;;;;;;5027471;28;20434;-85
2021/04/30 05:13:39;;;;;;;21.10;17.00;;;7.40;99.90;;;;;;5016473;28;20437;-85
2021/04/30 05:16:08;;;;;;;22.87;17.70;;;7.40;99.90;;;;;;5017021;28;20895;-85
2021/04/30 05:18:37;;;;;;;27.00;19.20;;;7.40;99.90;;;;;;5027665;28;20429;-85
2021/04/30 05:21:03;;;;;;;22.27;18.80;;;7.40;99.90;;;;;;5027587;28;20425;-84
2021/04/30 05:23:29;;;;;;;30.43;20.57;;;7.40;99.90;;;;;;5022491;28;20460;-84
2021/04/30 05:25:57;;;;;;;25.93;18.93;;;7.50;99.90;;;;;;5036449;28;20423;-85
2021/04/30 05:28:29;;;;;;;28.20;20.07;;;7.50;99.90;;;;;;5028436;28;20458;-90
2021/04/30 05:30:55;;;;;;;25.43;19.97;;;7.50;99.90;;;;;;5030092;28;20467;-85
2021/04/30 05:33:24;;;;;;;25.23;19.77;;;7.60;99.90;;;;;;5018916;28;20427;-84
2021/04/30 05:35:57;;;;;;;24.10;20.43;;;7.50;99.90;;;;;;5016916;28;20422;-85
2021/04/30 05:38:25;;;;;;;28.40;19.67;;;7.50;99.90;;;;;;5022846;28;20419;-85
2021/04/30 05:40:53;;;;;;;30.73;20.37;;;7.50;99.90;;;;;;5017941;28;20431;-85
2021/04/30 05:43:21;;;;;;;25.53;19.70;;;7.50;99.90;;;;;;5016010;28;20431;-85
2021/04/30 05:45:47;;;;;;;28.17;20.40;;;7.50;99.90;;;;;;5016075;28;20423;-85
2021/04/30 05:48:18;;;;;;;31.15;22.55;;;7.60;99.90;;;;;;5015640;28;20442;-84
2021/04/30 05:50:44;;;;;;;34.30;24.30;;;7.60;99.90;;;;;;5016453;28;20182;-84
2021/04/30 05:53:12;;;;;;;33.37;23.83;;;7.60;99.90;;;;;;5015578;28;20525;-85
2021/04/30 05:55:38;;;;;;;34.53;25.20;;;7.60;99.90;;;;;;5014690;28;20435;-84
2021/04/30 05:58:06;;;;;;;29.97;23.67;;;7.70;99.90;;;;;;5014862;28;20423;-85
2021/04/30 06:00:32;;;;;;;35.43;23.10;;;7.60;99.90;;;;;;5015916;28;20422;-85
2021/04/30 06:02:58;;;;;;;37.43;25.67;;;7.50;99.90;;;;;;5015167;28;20514;-85
2021/04/30 06:05:28;;;;;;;35.73;24.00;;;7.50;99.90;;;;;;5014868;28;20571;-85
2021/04/30 06:07:54;;;;;;;32.55;24.70;;;7.50;99.90;;;;;;5016288;28;20403;-83
2021/04/30 06:10:20;;;;;;;35.50;25.57;;;7.50;99.90;;;;;;5015423;28;20187;-84
2021/04/30 06:12:46;;;;;;;36.00;26.73;;;7.60;99.90;;;;;;5015160;28;20752;-84
2021/04/30 06:15:12;;;;;;;35.93;25.70;;;7.60;99.90;;;;;;5014795;28;20923;-85
2021/04/30 06:17:38;;;;;;;32.55;25.23;;;7.60;99.90;;;;;;5015322;28;20510;-85
2021/04/30 06:20:07;;;;;;;44.50;27.60;;;7.60;99.90;;;;;;5015479;28;20207;-85
2021/04/30 06:22:33;;;;;;;37.63;28.40;;;7.40;99.90;;;;;;5015123;28;20201;-84
2021/04/30 06:24:59;;;;;;;43.43;26.90;;;7.40;99.90;;;;;;5015431;28;20474;-85
2021/04/30 06:27:25;;;;;;;33.87;26.30;;;7.40;99.90;;;;;;5014718;28;20465;-85
2021/04/30 06:29:53;;;;;;;37.67;25.60;;;7.50;99.90;;;;;;4981273;28;20439;-84
2021/04/30 06:32:22;;;;;;;34.97;26.25;;;7.50;99.90;;;;;;5009942;28;20460;-84
2021/04/30 06:34:48;;;;;;;37.78;26.52;;;7.40;99.90;;;;;;5015620;28;20278;-84
2021/04/30 06:37:16;;;;;;;42.63;27.40;;;7.40;99.90;;;;;;4998312;28;20283;-83
2021/04/30 06:39:42;;;;;;;40.10;27.75;;;7.30;99.90;;;;;;5015403;28;20422;-85
2021/04/30 06:42:08;;;;;;;40.40;28.57;;;7.30;99.90;;;;;;5015225;28;20194;-84
2021/04/30 06:44:36;;;;;;;36.37;26.97;;;7.30;99.90;;;;;;5014044;28;20694;-84
2021/04/30 06:47:02;;;;;;;43.70;28.30;;;7.30;99.90;;;;;;5014519;28;20497;-84
2021/04/30 06:49:33;;;;;;;41.50;27.60;;;7.30;99.90;;;;;;5017770;28;20823;-84
2021/04/30 06:51:59;;;;;;;37.57;27.30;;;7.20;99.90;;;;;;5014650;28;20457;-83
2021/04/30 06:54:29;;;;;;;38.97;26.67;;;7.30;99.90;;;;;;5015369;28;20425;-84
2021/04/30 06:56:58;;;;;;;31.97;23.53;;;7.40;99.90;;;;;;5009553;28;20441;-85
2021/04/30 06:59:26;;;;;;;39.40;23.90;;;7.50;99.90;;;;;;5022126;28;20461;-84
2021/04/30 07:01:52;;;;;;;36.20;24.83;;;7.50;99.90;;;;;;5020548;28;20571;-85
2021/04/30 07:04:19;;;;;;;31.00;23.87;;;7.50;99.90;;;;;;5014692;28;20465;-85
2021/04/30 07:06:45;;;;;;;35.00;24.90;;;7.50;99.90;;;;;;5013935;28;20428;-84
2021/04/30 07:09:11;;;;;;;33.90;24.90;;;7.50;99.90;;;;;;5023801;28;20445;-84
2021/04/30 07:11:39;;;;;;;35.70;23.97;;;7.50;99.90;;;;;;5028920;28;20434;-85
2021/04/30 07:14:05;;;;;;;33.78;24.45;;;7.50;99.90;;;;;;5024690;28;20452;-84
2021/04/30 07:16:32;;;;;;;34.50;25.90;;;7.50;99.90;;;;;;5013703;28;20258;-84
2021/04/30 07:18:58;;;;;;;31.97;25.27;;;7.50;99.90;;;;;;5020106;28;20800;-86
2021/04/30 07:21:29;;;;;;;36.50;25.33;;;7.50;99.90;;;;;;5015932;28;20813;-84
2021/04/30 07:23:55;;;;;;;39.20;25.73;;;7.50;99.90;;;;;;5032862;28;20850;-84
2021/04/30 07:26:21;;;;;;;40.77;26.20;;;7.50;99.90;;;;;;5033693;28;20512;-84
2021/04/30 07:28:47;;;;;;;39.40;24.07;;;7.50;99.90;;;;;;5030237;28;20453;-84
2021/04/30 07:31:15;;;;;;;34.63;22.33;;;7.60;99.90;;;;;;5033850;28;20477;-83
2021/04/30 07:33:46;;;;;;;34.00;24.43;;;7.60;99.90;;;;;;5031055;28;20429;-82
2021/04/30 07:36:16;;;;;;;31.70;24.30;;;7.70;99.90;;;;;;5013860;28;20424;-84
2021/04/30 07:38:44;;;;;;;37.43;25.27;;;7.80;99.90;;;;;;5015989;28;21110;-84
2021/04/30 07:41:11;;;;;;;37.57;25.47;;;7.80;99.90;;;;;;5024056;28;20511;-84
2021/04/30 07:43:39;;;;;;;34.40;24.60;;;7.80;99.90;;;;;;5020844;28;20576;-84
2021/04/30 07:46:08;;;;;;;32.40;25.27;;;7.90;99.90;;;;;;5033578;28;20510;-84
2021/04/30 07:48:39;;;;;;;32.60;25.90;;;7.90;99.90;;;;;;5022249;28;20489;-83
2021/04/30 07:51:09;;;;;;;31.97;25.00;;;7.90;99.90;;;;;;4996961;28;20438;-83
2021/04/30 07:53:35;;;;;;;34.03;23.60;;;7.90;99.90;;;;;;5024112;28;20950;-83
2021/04/30 07:56:04;;;;;;;29.80;22.90;;;7.90;99.90;;;;;;5033020;28;20757;-83
2021/04/30 07:58:35;;;;;;;38.45;26.33;;;7.90;99.90;;;;;;5027846;28;20431;-82
2021/04/30 08:01:01;;;;;;;34.43;24.43;;;7.90;99.90;;;;;;5014084;28;20204;-83
2021/04/30 08:03:32;;;;;;;35.83;24.37;;;7.90;99.90;;;;;;5013580;28;20464;-83
2021/04/30 08:06:00;;;;;;;33.43;23.57;;;7.90;99.90;;;;;;5012824;28;20416;-83
2021/04/30 08:08:26;;;;;;;37.97;24.17;;;8.00;99.90;;;;;;5013655;28;20857;-83
2021/04/30 08:10:54;;;;;;;36.53;24.70;;;8.00;99.90;;;;;;5012011;28;20436;-82
2021/04/30 08:13:21;;;;;;;33.83;23.27;;;7.90;99.90;;;;;;5013523;28;20897;-83
2021/04/30 08:15:49;;;;;;;31.70;25.03;;;8.00;99.90;;;;;;5013549;28;20752;-83
2021/04/30 08:18:17;;;;;;;35.50;25.53;;;8.00;99.90;;;;;;4995782;28;20835;-83
2021/04/30 08:20:45;;;;;;;36.27;25.83;;;8.10;99.90;;;;;;5014586;28;20440;-82
2021/04/30 08:23:16;;;;;;;33.63;23.83;;;8.10;99.90;;;;;;5016712;28;20507;-82
2021/04/30 08:25:44;;;;;;;36.60;27.40;;;8.10;99.90;;;;;;5016567;28;20424;-83
2021/04/30 08:28:13;;;;;;;41.60;27.40;;;8.10;99.90;;;;;;5021277;28;20909;-82
2021/04/30 08:30:39;;;;;;;40.67;26.47;;;8.10;99.90;;;;;;4998005;28;20456;-83
2021/04/30 08:33:06;;;;;;;40.03;25.37;;;8.10;99.90;;;;;;4997864;28;20513;-83
2021/04/30 08:35:34;;;;;;;39.70;26.43;;;8.10;99.90;;;;;;5011479;28;20524;-78
2021/04/30 08:38:09;;;;;;;40.23;27.30;;;8.10;99.90;;;;;;5017332;28;20450;-78
2021/04/30 08:40:38;;;;;;;40.43;26.10;;;8.20;99.90;;;;;;5017405;28;20404;-78
2021/04/30 08:43:07;;;;;;;34.63;24.50;;;8.20;99.90;;;;;;5016449;28;20462;-77
2021/04/30 08:45:40;;;;;;;37.30;25.83;;;8.30;99.90;;;;;;5016881;28;20506;-78
2021/04/30 08:48:13;;;;;;;36.50;25.63;;;8.30;99.90;;;;;;5016524;28;20436;-78
2021/04/30 08:50:47;;;;;;;39.87;27.53;;;8.30;99.90;;;;;;5016473;28;20415;-78
2021/04/30 08:53:19;;;;;;;37.37;25.97;;;8.30;99.90;;;;;;5017061;28;20909;-78
2021/04/30 08:55:48;;;;;;;31.03;25.40;;;8.30;99.90;;;;;;5017401;28;20407;-81
2021/04/30 08:58:22;;;;;;;34.80;26.20;;;8.40;99.90;;;;;;5016953;28;20428;-79
2021/04/30 09:00:50;;;;;;;40.10;28.40;;;8.40;99.90;;;;;;5004575;28;20892;-79
2021/04/30 09:03:26;;;;;;;34.80;26.03;;;8.40;99.90;;;;;;4997126;28;20494;-78
2021/04/30 09:06:00;;;;;;;45.07;25.27;;;8.40;99.90;;;;;;4997208;28;20757;-79
2021/04/30 09:08:46;;;;;;;42.00;25.40;;;8.40;99.90;;;;;;4996554;28;20475;-79
2021/04/30 09:11:34;;;;;;;34.40;25.87;;;8.40;99.90;;;;;;5015350;28;20420;-79
2021/04/30 09:14:20;;;;;;;37.73;24.70;;;8.30;99.90;;;;;;5005932;28;20450;-79
2021/04/30 09:17:14;;;;;;;43.90;27.90;;;8.30;99.90;;;;;;5016770;28;20896;-79
2021/04/30 09:19:55;;;;;;;39.50;26.53;;;8.30;99.90;;;;;;5015843;28;20492;-80
2021/04/30 09:22:28;;;;;;;41.53;26.30;;;8.30;99.90;;;;;;5013922;28;20451;-79
2021/04/30 09:24:58;;;;;;;40.20;27.10;;;8.30;99.90;;;;;;5019312;28;21022;-79
2021/04/30 09:27:41;;;;;;;36.73;25.80;;;8.30;99.90;;;;;;5016711;28;20900;-79
2021/04/30 09:30:26;;;;;;;37.33;25.83;;;8.40;99.90;;;;;;5015300;28;20512;-78
2021/04/30 09:33:12;;;;;;;38.20;25.87;;;8.40;99.90;;;;;;5016878;28;20502;-79
2021/04/30 09:35:41;;;;;;;41.50;26.20;;;8.40;99.90;;;;;;5016290;28;20416;-79
2021/04/30 09:38:14;;;;;;;40.77;27.50;;;8.50;99.90;;;;;;5015837;28;20451;-79
2021/04/30 09:40:45;;;;;;;38.20;26.63;;;8.50;99.90;;;;;;5016105;28;20490;-79
2021/04/30 09:43:15;;;;;;;40.27;28.13;;;8.60;99.90;;;;;;5016400;28;20816;-79
2021/04/30 09:45:45;;;;;;;38.93;26.90;;;8.60;99.90;;;;;;5014806;28;20424;-79
2021/04/30 09:48:17;;;;;;;38.93;26.30;;;8.50;99.90;;;;;;5014816;28;20923;-79
2021/04/30 09:50:47;;;;;;;37.87;26.23;;;8.50;99.90;;;;;;5015852;28;20418;-79
2021/04/30 09:53:17;;;;;;;39.47;27.43;;;8.50;99.90;;;;;;4998683;28;20424;-78
2021/04/30 09:55:49;;;;;;;42.13;26.30;;;8.50;99.90;;;;;;5015947;28;20420;-78
2021/04/30 09:58:29;;;;;;;36.90;26.37;;;8.60;99.90;;;;;;5014596;28;20460;-78
2021/04/30 10:01:00;;;;;;;37.70;26.40;;;8.60;99.90;;;;;;5015044;28;20432;-79
2021/04/30 10:03:36;;;;;;;35.50;26.17;;;8.60;99.90;;;;;;5014676;28;20531;-78
2021/04/30 10:06:13;;;;;;;43.10;27.93;;;8.60;99.90;;;;;;5015447;28;21036;-79
2021/04/30 10:08:41;;;;;;;47.50;29.37;;;8.60;99.90;;;;;;5015085;28;20428;-79
2021/04/30 10:11:30;;;;;;;43.10;30.00;;;8.60;99.90;;;;;;5015668;28;20427;-79
2021/04/30 10:13:59;;;;;;;37.97;27.10;;;8.60;99.90;;;;;;5014510;28;20436;-80
2021/04/30 10:16:30;;;;;;;37.80;28.00;;;8.50;99.90;;;;;;5014046;28;20471;-78
2021/04/30 10:19:02;;;;;;;40.00;27.50;;;8.60;99.90;;;;;;5015602;28;20791;-78
2021/04/30 10:21:30;;;;;;;37.60;26.27;;;8.70;99.90;;;;;;5015444;28;20515;-77
2021/04/30 10:24:01;;;;;;;38.10;25.83;;;8.70;99.90;;;;;;5014496;28;20562;-77
2021/04/30 10:26:32;;;;;;;38.00;28.17;;;8.70;99.90;;;;;;5014483;28;20416;-77
2021/04/30 10:29:10;;;;;;;45.47;27.90;;;8.80;99.90;;;;;;4994704;28;20506;-77
2021/04/30 10:31:44;;;;;;;36.20;25.83;;;8.90;99.90;;;;;;4997583;28;20503;-77
2021/04/30 10:34:32;;;;;;;36.90;25.90;;;9.00;99.90;;;;;;5014998;28;20507;-77
2021/04/30 10:37:03;;;;;;;39.40;26.27;;;9.10;99.90;;;;;;5015072;28;20437;-77
2021/04/30 10:39:32;;;;;;;33.90;27.07;;;9.20;99.90;;;;;;4997949;28;20444;-78
2021/04/30 10:42:11;;;;;;;45.90;28.17;;;9.20;99.90;;;;;;5014296;28;20436;-78
2021/04/30 10:44:42;;;;;;;39.80;25.90;;;9.20;99.90;;;;;;5014602;28;20478;-77
2021/04/30 10:47:15;;;;;;;33.10;25.67;;;9.30;99.90;;;;;;5014878;28;20777;-77
2021/04/30 10:49:43;;;;;;;34.07;25.80;;;9.40;99.90;;;;;;5013763;28;20433;-77
2021/04/30 10:52:24;;;;;;;34.87;25.17;;;9.50;99.90;;;;;;4999434;28;20503;-77
2021/04/30 10:55:11;;;;;;;36.43;26.97;;;9.70;99.90;;;;;;5005760;28;20425;-77
2021/04/30 10:57:53;;;;;;;35.63;26.00;;;9.80;99.90;;;;;;5013932;28;20958;-77
2021/04/30 11:00:36;;;;;;;36.97;24.30;;;10.10;99.90;;;;;;5014801;28;20410;-77
2021/04/30 11:03:12;;;;;;;34.13;24.30;;;10.50;99.90;;;;;;5013940;28;20499;-77
2021/04/30 11:05:56;;;;;;;29.50;23.33;;;10.70;99.90;;;;;;5013541;28;20433;-77
2021/04/30 11:08:49;;;;;;;33.00;24.23;;;10.90;99.90;;;;;;5014586;28;20402;-77
2021/04/30 11:11:33;;;;;;;31.20;23.80;;;10.90;99.90;;;;;;5003874;28;20435;-77
2021/04/30 11:14:27;;;;;;;32.60;25.47;;;11.00;99.90;;;;;;5014470;28;20404;-77
2021/04/30 11:17:02;;;;;;;32.50;25.40;;;11.10;99.90;;;;;;5013378;28;20479;-78
2021/04/30 11:19:33;;;;;;;30.83;24.83;;;11.10;99.90;;;;;;5014243;28;20907;-78
2021/04/30 11:22:13;;;;;;;32.83;22.30;;;11.30;99.90;;;;;;5014392;28;20413;-78
2021/04/30 11:24:50;;;;;;;34.10;24.57;;;11.50;99.90;;;;;;5013685;28;20452;-78
2021/04/30 11:27:20;;;;;;;31.57;23.53;;;11.90;99.90;;;;;;5013265;28;20436;-78
2021/04/30 11:29:52;;;;;;;29.07;21.77;;;12.20;99.90;;;;;;5015231;28;20877;-77
2021/04/30 11:32:26;;;;;;;26.40;23.47;;;12.40;99.90;;;;;;4984449;28;20534;-77
2021/04/30 11:35:00;;;;;;;28.17;23.37;;;12.40;99.90;;;;;;5013532;28;20425;-78
2021/04/30 11:37:31;;;;;;;27.50;22.17;;;12.60;99.90;;;;;;5014300;28;20524;-78
2021/04/30 11:40:00;;;;;;;26.47;21.90;;;12.70;99.90;;;;;;5014095;28;20878;-78
2021/04/30 11:42:31;;;;;;;29.60;24.60;;;12.70;99.90;;;;;;5013824;28;20423;-78
2021/04/30 11:45:06;;;;;;;28.30;22.73;;;12.70;99.90;;;;;;5012756;28;21014;-78
2021/04/30 11:47:41;;;;;;;24.60;21.13;;;12.80;99.90;;;;;;5013989;28;20430;-77
2021/04/30 11:50:10;;;;;;;30.23;21.20;;;13.00;99.90;;;;;;5015603;28;20453;-78
2021/04/30 11:52:41;;;;;;;24.37;21.30;;;13.20;99.90;;;;;;5033442;28;20454;-77
2021/04/30 11:55:14;;;;;;;22.97;20.30;;;13.40;99.90;;;;;;5023104;28;20481;-77
2021/04/30 11:57:52;;;;;;;21.67;19.37;;;13.80;99.90;;;;;;5013989;28;20856;-78
2021/04/30 12:00:29;;;;;;;23.07;19.63;;;14.20;99.40;;;;;;5013254;28;20426;-77
2021/04/30 12:03:21;;;;;;;24.33;20.17;;;14.30;98.30;;;;;;5013428;28;20447;-78
2021/04/30 12:05:55;;;;;;;29.03;22.90;;;14.30;97.60;;;;;;5013467;28;20442;-77
2021/04/30 12:08:28;;;;;;;29.10;22.70;;;13.90;98.50;;;;;;5012760;28;20461;-77
2021/04/30 12:10:56;;;;;;;27.70;22.27;;;13.70;99.20;;;;;;5013207;28;20422;-77
2021/04/30 12:13:22;;;;;;;24.37;20.60;;;13.70;99.20;;;;;;5012545;28;20768;-78
2021/04/30 12:15:50;;;;;;;31.47;21.87;;;13.60;99.50;;;;;;5013754;28;20723;-78
2021/04/30 12:18:21;;;;;;;24.70;20.80;;;13.70;99.90;;;;;;5012581;28;20508;-78
2021/04/30 12:20:51;;;;;;;25.77;20.27;;;13.80;99.90;;;;;;5013573;28;20513;-78
2021/04/30 12:23:20;;;;;;;32.73;21.70;;;13.70;99.80;;;;;;5013153;28;20554;-78
2021/04/30 12:25:51;;;;;;;25.50;21.90;;;13.40;99.90;;;;;;5013110;28;20437;-78
2021/04/30 12:28:25;;;;;;;25.30;22.63;;;13.30;99.90;;;;;;5012699;28;20449;-78
2021/04/30 12:31:04;;;;;;;27.97;23.63;;;13.20;99.90;;;;;;4996091;28;20474;-78
2021/04/30 12:33:45;;;;;;;29.17;24.33;;;12.80;99.90;;;;;;4989566;28;20512;-78
2021/04/30 12:36:22;;;;;;;29.77;24.40;;;12.70;99.90;;;;;;5012357;28;20428;-78
2021/04/30 12:38:53;;;;;;;29.67;24.70;;;12.70;99.90;;;;;;4970655;28;20546;-77
2021/04/30 12:41:27;;;;;;;35.00;24.13;;;12.70;99.90;;;;;;4993866;28;20501;-78
2021/04/30 12:43:59;;;;;;;32.77;24.60;;;12.60;99.90;;;;;;5004986;28;20474;-77
2021/04/30 12:46:39;;;;;;;26.83;23.10;;;12.60;99.90;;;;;;4996303;28;20430;-77
2021/04/30 12:49:15;;;;;;;29.30;23.90;;;12.70;99.90;;;;;;4996331;28;20432;-78
2021/04/30 12:51:43;;;;;;;30.73;23.63;;;12.60;99.90;;;;;;5013378;28;20471;-78